sensor_id;sensor_type;location;lat;lon;timestamp;P1;durP1;ratioP1;P2;durP2;ratioP2
39264;SDS011;42646;51.910;7.724;2022-09-09T00:00:09;3.03;;;1.55;;
39264;SDS011;42646;51.910;7.724;2022-09-09T00:02:40;3.50;;;1.50;;
39264;SDS011;42646;51.910;7.724;2022-09-09T00:05:15;3.28;;;1.42;;
39264;SDS011;42646;51.910;7.724;2022-09-09T00:07:52;3.90;;;1.70;;
39264;SDS011;42646;51.910;7.724;2022-09-09T00:10:24;3.63;;;1.60;;
39264;SDS011;42646;51.910;7.724;2022-09-09T00:12:57;2.58;;;1.35;;
39264;SDS011;42646;51.910;7.724;2022-09-09T00:15:33;3.35;;;1.58;;
39264;SDS011;42646;51.910;7.724;2022-09-09T00:18:08;4.60;;;1.60;;
39264;SDS011;42646;51.910;7.724;2022-09-09T00:20:47;4.20;;;1.60;;
39264;SDS011;42646;51.910;7.724;2022-09-09T00:23:23;4.63;;;1.58;;
39264;SDS011;42646;51.910;7.724;2022-09-09T00:25:54;3.13;;;1.67;;
39264;SDS011;42646;51.910;7.724;2022-09-09T00:28:29;3.38;;;1.38;;
39264;SDS011;42646;51.910;7.724;2022-09-09T00:31:01;3.58;;;1.40;;
39264;SDS011;42646;51.910;7.724;2022-09-09T00:33:40;4.05;;;1.45;;
39264;SDS011;42646;51.910;7.724;2022-09-09T00:36:13;4.95;;;1.50;;
39264;SDS011;42646;51.910;7.724;2022-09-09T00:38:45;4.78;;;1.35;;
39264;SDS011;42646;51.910;7.724;2022-09-09T00:43:46;3.95;;;1.50;;
39264;SDS011;42646;51.910;7.724;2022-09-09T00:49:36;2.85;;;1.40;;
39264;SDS011;42646;51.910;7.724;2022-09-09T00:52:21;2.13;;;1.27;;
39264;SDS011;42646;51.910;7.724;2022-09-09T00:54:56;3.15;;;1.48;;
39264;SDS011;42646;51.910;7.724;2022-09-09T00:57:32;2.72;;;1.40;;
39264;SDS011;42646;51.910;7.724;2022-09-09T01:00:16;4.53;;;1.60;;
39264;SDS011;42646;51.910;7.724;2022-09-09T01:02:48;2.42;;;1.30;;
39264;SDS011;42646;51.910;7.724;2022-09-09T01:05:27;4.03;;;1.50;;
39264;SDS011;42646;51.910;7.724;2022-09-09T01:08:05;2.50;;;1.40;;
39264;SDS011;42646;51.910;7.724;2022-09-09T01:10:44;2.67;;;1.38;;
39264;SDS011;42646;51.910;7.724;2022-09-09T01:13:20;3.33;;;1.80;;
39264;SDS011;42646;51.910;7.724;2022-09-09T01:15:52;3.85;;;1.65;;
39264;SDS011;42646;51.910;7.724;2022-09-09T01:18:29;4.40;;;1.63;;
39264;SDS011;42646;51.910;7.724;2022-09-09T01:21:04;3.13;;;1.52;;
39264;SDS011;42646;51.910;7.724;2022-09-09T01:23:45;4.10;;;1.60;;
39264;SDS011;42646;51.910;7.724;2022-09-09T01:29:09;3.60;;;1.77;;
39264;SDS011;42646;51.910;7.724;2022-09-09T01:31:41;4.95;;;1.42;;
39264;SDS011;42646;51.910;7.724;2022-09-09T01:34:19;3.15;;;1.30;;
39264;SDS011;42646;51.910;7.724;2022-09-09T01:36:49;3.28;;;1.38;;
39264;SDS011;42646;51.910;7.724;2022-09-09T01:39:23;3.33;;;1.45;;
39264;SDS011;42646;51.910;7.724;2022-09-09T01:42:00;2.67;;;1.33;;
39264;SDS011;42646;51.910;7.724;2022-09-09T01:44:29;2.80;;;1.38;;
39264;SDS011;42646;51.910;7.724;2022-09-09T01:46:59;3.97;;;1.40;;
39264;SDS011;42646;51.910;7.724;2022-09-09T01:49:27;2.78;;;1.30;;
39264;SDS011;42646;51.910;7.724;2022-09-09T01:51:55;3.17;;;1.50;;
39264;SDS011;42646;51.910;7.724;2022-09-09T01:54:31;4.53;;;1.50;;
39264;SDS011;42646;51.910;7.724;2022-09-09T01:57:10;2.30;;;1.40;;
39264;SDS011;42646;51.910;7.724;2022-09-09T01:59:52;3.08;;;1.48;;
39264;SDS011;42646;51.910;7.724;2022-09-09T02:02:41;4.07;;;1.50;;
39264;SDS011;42646;51.910;7.724;2022-09-09T02:05:26;2.85;;;1.30;;
39264;SDS011;42646;51.910;7.724;2022-09-09T02:08:00;2.78;;;1.40;;
39264;SDS011;42646;51.910;7.724;2022-09-09T02:10:50;3.47;;;1.30;;
39264;SDS011;42646;51.910;7.724;2022-09-09T02:13:36;3.22;;;1.60;;
39264;SDS011;42646;51.910;7.724;2022-09-09T02:16:10;3.53;;;1.58;;
39264;SDS011;42646;51.910;7.724;2022-09-09T02:18:45;2.97;;;1.70;;
39264;SDS011;42646;51.910;7.724;2022-09-09T02:21:22;3.83;;;1.60;;
39264;SDS011;42646;51.910;7.724;2022-09-09T02:23:52;3.55;;;1.67;;
39264;SDS011;42646;51.910;7.724;2022-09-09T02:26:20;3.17;;;1.75;;
39264;SDS011;42646;51.910;7.724;2022-09-09T02:28:57;2.75;;;1.52;;
39264;SDS011;42646;51.910;7.724;2022-09-09T02:31:28;3.17;;;1.80;;
39264;SDS011;42646;51.910;7.724;2022-09-09T02:34:03;2.58;;;1.42;;
39264;SDS011;42646;51.910;7.724;2022-09-09T02:36:33;3.17;;;1.90;;
39264;SDS011;42646;51.910;7.724;2022-09-09T02:39:04;3.57;;;1.70;;
39264;SDS011;42646;51.910;7.724;2022-09-09T02:41:35;3.10;;;1.60;;
39264;SDS011;42646;51.910;7.724;2022-09-09T02:44:08;3.58;;;1.80;;
39264;SDS011;42646;51.910;7.724;2022-09-09T02:46:46;3.55;;;1.75;;
39264;SDS011;42646;51.910;7.724;2022-09-09T02:49:34;3.17;;;1.70;;
39264;SDS011;42646;51.910;7.724;2022-09-09T02:52:13;3.13;;;1.85;;
39264;SDS011;42646;51.910;7.724;2022-09-09T02:54:42;3.67;;;1.87;;
39264;SDS011;42646;51.910;7.724;2022-09-09T02:57:13;3.38;;;1.88;;
39264;SDS011;42646;51.910;7.724;2022-09-09T02:59:48;2.92;;;1.70;;
39264;SDS011;42646;51.910;7.724;2022-09-09T03:02:18;3.73;;;1.90;;
39264;SDS011;42646;51.910;7.724;2022-09-09T03:04:51;2.88;;;2.00;;
39264;SDS011;42646;51.910;7.724;2022-09-09T03:07:19;2.97;;;1.73;;
39264;SDS011;42646;51.910;7.724;2022-09-09T03:09:49;4.22;;;2.17;;
39264;SDS011;42646;51.910;7.724;2022-09-09T03:12:23;3.17;;;1.85;;
39264;SDS011;42646;51.910;7.724;2022-09-09T03:14:52;3.63;;;1.85;;
39264;SDS011;42646;51.910;7.724;2022-09-09T03:17:20;3.40;;;2.00;;
39264;SDS011;42646;51.910;7.724;2022-09-09T03:19:51;3.80;;;1.65;;
39264;SDS011;42646;51.910;7.724;2022-09-09T03:22:21;2.83;;;1.90;;
39264;SDS011;42646;51.910;7.724;2022-09-09T03:24:48;4.13;;;1.85;;
39264;SDS011;42646;51.910;7.724;2022-09-09T03:27:17;3.85;;;2.40;;
39264;SDS011;42646;51.910;7.724;2022-09-09T03:29:45;3.35;;;2.00;;
39264;SDS011;42646;51.910;7.724;2022-09-09T03:32:20;3.33;;;2.10;;
39264;SDS011;42646;51.910;7.724;2022-09-09T03:34:48;5.63;;;2.10;;
39264;SDS011;42646;51.910;7.724;2022-09-09T03:37:17;3.78;;;2.10;;
39264;SDS011;42646;51.910;7.724;2022-09-09T03:39:46;4.00;;;2.22;;
39264;SDS011;42646;51.910;7.724;2022-09-09T03:42:15;4.25;;;2.30;;
39264;SDS011;42646;51.910;7.724;2022-09-09T03:44:48;4.03;;;2.15;;
39264;SDS011;42646;51.910;7.724;2022-09-09T03:47:20;4.72;;;2.30;;
39264;SDS011;42646;51.910;7.724;2022-09-09T03:49:52;4.30;;;2.17;;
39264;SDS011;42646;51.910;7.724;2022-09-09T03:52:20;4.18;;;2.25;;
39264;SDS011;42646;51.910;7.724;2022-09-09T03:54:51;4.65;;;2.20;;
39264;SDS011;42646;51.910;7.724;2022-09-09T03:57:20;4.28;;;2.20;;
39264;SDS011;42646;51.910;7.724;2022-09-09T03:59:49;3.22;;;2.05;;
39264;SDS011;42646;51.910;7.724;2022-09-09T04:02:16;3.90;;;2.30;;
39264;SDS011;42646;51.910;7.724;2022-09-09T04:04:45;3.55;;;2.08;;
39264;SDS011;42646;51.910;7.724;2022-09-09T04:07:14;3.72;;;2.00;;
39264;SDS011;42646;51.910;7.724;2022-09-09T04:09:43;3.95;;;2.28;;
39264;SDS011;42646;51.910;7.724;2022-09-09T04:12:12;3.80;;;2.20;;
39264;SDS011;42646;51.910;7.724;2022-09-09T04:14:40;4.88;;;2.20;;
39264;SDS011;42646;51.910;7.724;2022-09-09T04:17:09;4.75;;;2.20;;
39264;SDS011;42646;51.910;7.724;2022-09-09T04:19:37;3.47;;;2.20;;
39264;SDS011;42646;51.910;7.724;2022-09-09T04:22:06;3.60;;;2.20;;
39264;SDS011;42646;51.910;7.724;2022-09-09T04:24:33;5.90;;;2.25;;
39264;SDS011;42646;51.910;7.724;2022-09-09T04:27:02;4.13;;;2.28;;
39264;SDS011;42646;51.910;7.724;2022-09-09T04:29:32;4.85;;;2.30;;
39264;SDS011;42646;51.910;7.724;2022-09-09T04:32:01;3.80;;;2.20;;
39264;SDS011;42646;51.910;7.724;2022-09-09T04:34:29;5.47;;;2.42;;
39264;SDS011;42646;51.910;7.724;2022-09-09T04:36:57;3.95;;;2.35;;
39264;SDS011;42646;51.910;7.724;2022-09-09T04:39:28;4.22;;;2.40;;
39264;SDS011;42646;51.910;7.724;2022-09-09T04:41:58;4.23;;;2.43;;
39264;SDS011;42646;51.910;7.724;2022-09-09T04:44:26;3.42;;;2.20;;
39264;SDS011;42646;51.910;7.724;2022-09-09T04:46:53;5.07;;;2.40;;
39264;SDS011;42646;51.910;7.724;2022-09-09T04:49:21;4.85;;;2.47;;
39264;SDS011;42646;51.910;7.724;2022-09-09T04:51:49;4.95;;;2.20;;
39264;SDS011;42646;51.910;7.724;2022-09-09T04:54:17;4.97;;;2.25;;
39264;SDS011;42646;51.910;7.724;2022-09-09T04:56:47;3.53;;;2.15;;
39264;SDS011;42646;51.910;7.724;2022-09-09T04:59:15;7.45;;;2.45;;
39264;SDS011;42646;51.910;7.724;2022-09-09T05:01:46;4.78;;;2.17;;
39264;SDS011;42646;51.910;7.724;2022-09-09T05:04:14;4.65;;;2.10;;
39264;SDS011;42646;51.910;7.724;2022-09-09T05:06:42;4.03;;;2.00;;
39264;SDS011;42646;51.910;7.724;2022-09-09T05:09:11;5.53;;;2.10;;
39264;SDS011;42646;51.910;7.724;2022-09-09T05:11:39;4.80;;;2.17;;
39264;SDS011;42646;51.910;7.724;2022-09-09T05:14:25;3.63;;;1.73;;
39264;SDS011;42646;51.910;7.724;2022-09-09T05:16:53;4.70;;;2.15;;
39264;SDS011;42646;51.910;7.724;2022-09-09T05:19:22;4.00;;;1.98;;
39264;SDS011;42646;51.910;7.724;2022-09-09T05:21:52;3.75;;;1.90;;
39264;SDS011;42646;51.910;7.724;2022-09-09T05:24:25;4.20;;;2.30;;
39264;SDS011;42646;51.910;7.724;2022-09-09T05:26:56;3.55;;;1.85;;
39264;SDS011;42646;51.910;7.724;2022-09-09T05:29:25;4.07;;;1.90;;
39264;SDS011;42646;51.910;7.724;2022-09-09T05:31:55;4.13;;;2.15;;
39264;SDS011;42646;51.910;7.724;2022-09-09T05:34:23;3.50;;;1.90;;
39264;SDS011;42646;51.910;7.724;2022-09-09T05:36:52;3.47;;;2.05;;
39264;SDS011;42646;51.910;7.724;2022-09-09T05:39:21;4.72;;;1.80;;
39264;SDS011;42646;51.910;7.724;2022-09-09T05:41:49;4.93;;;1.80;;
39264;SDS011;42646;51.910;7.724;2022-09-09T05:44:17;5.07;;;2.28;;
39264;SDS011;42646;51.910;7.724;2022-09-09T05:46:46;5.05;;;1.88;;
39264;SDS011;42646;51.910;7.724;2022-09-09T05:49:15;4.47;;;1.90;;
39264;SDS011;42646;51.910;7.724;2022-09-09T05:51:43;6.13;;;1.90;;
39264;SDS011;42646;51.910;7.724;2022-09-09T05:54:13;4.57;;;1.85;;
39264;SDS011;42646;51.910;7.724;2022-09-09T05:56:45;4.05;;;1.77;;
39264;SDS011;42646;51.910;7.724;2022-09-09T06:01:46;4.03;;;1.73;;
39264;SDS011;42646;51.910;7.724;2022-09-09T06:04:25;3.80;;;1.75;;
39264;SDS011;42646;51.910;7.724;2022-09-09T06:06:53;5.00;;;1.77;;
39264;SDS011;42646;51.910;7.724;2022-09-09T06:09:22;6.28;;;1.80;;
39264;SDS011;42646;51.910;7.724;2022-09-09T06:11:49;4.20;;;1.80;;
39264;SDS011;42646;51.910;7.724;2022-09-09T06:14:19;4.47;;;1.80;;
39264;SDS011;42646;51.910;7.724;2022-09-09T06:16:50;5.18;;;2.05;;
39264;SDS011;42646;51.910;7.724;2022-09-09T06:19:25;3.88;;;2.08;;
39264;SDS011;42646;51.910;7.724;2022-09-09T06:21:55;3.97;;;1.75;;
39264;SDS011;42646;51.910;7.724;2022-09-09T06:24:23;5.90;;;1.95;;
39264;SDS011;42646;51.910;7.724;2022-09-09T06:26:50;4.78;;;1.80;;
39264;SDS011;42646;51.910;7.724;2022-09-09T06:29:22;4.18;;;2.00;;
39264;SDS011;42646;51.910;7.724;2022-09-09T06:31:52;5.50;;;2.00;;
39264;SDS011;42646;51.910;7.724;2022-09-09T06:34:22;3.97;;;1.90;;
39264;SDS011;42646;51.910;7.724;2022-09-09T06:36:54;4.28;;;1.90;;
39264;SDS011;42646;51.910;7.724;2022-09-09T06:39:25;3.35;;;1.65;;
39264;SDS011;42646;51.910;7.724;2022-09-09T06:41:53;5.97;;;1.90;;
39264;SDS011;42646;51.910;7.724;2022-09-09T06:44:47;3.42;;;1.67;;
39264;SDS011;42646;51.910;7.724;2022-09-09T06:47:27;3.60;;;1.60;;
39264;SDS011;42646;51.910;7.724;2022-09-09T06:49:57;5.38;;;1.77;;
39264;SDS011;42646;51.910;7.724;2022-09-09T06:52:25;5.00;;;1.70;;
39264;SDS011;42646;51.910;7.724;2022-09-09T06:54:54;4.07;;;1.70;;
39264;SDS011;42646;51.910;7.724;2022-09-09T06:57:24;4.32;;;1.80;;
39264;SDS011;42646;51.910;7.724;2022-09-09T07:00:06;4.88;;;1.70;;
39264;SDS011;42646;51.910;7.724;2022-09-09T07:02:36;3.28;;;1.67;;
39264;SDS011;42646;51.910;7.724;2022-09-09T07:05:06;5.38;;;1.70;;
39264;SDS011;42646;51.910;7.724;2022-09-09T07:07:34;4.72;;;1.70;;
39264;SDS011;42646;51.910;7.724;2022-09-09T07:10:03;3.97;;;1.83;;
39264;SDS011;42646;51.910;7.724;2022-09-09T07:12:32;4.55;;;1.83;;
39264;SDS011;42646;51.910;7.724;2022-09-09T07:15:00;5.47;;;2.05;;
39264;SDS011;42646;51.910;7.724;2022-09-09T07:17:27;5.35;;;1.80;;
39264;SDS011;42646;51.910;7.724;2022-09-09T07:19:59;4.78;;;1.90;;
39264;SDS011;42646;51.910;7.724;2022-09-09T07:22:27;5.43;;;1.92;;
39264;SDS011;42646;51.910;7.724;2022-09-09T07:24:55;4.18;;;1.50;;
39264;SDS011;42646;51.910;7.724;2022-09-09T07:27:24;4.65;;;2.00;;
39264;SDS011;42646;51.910;7.724;2022-09-09T07:29:51;6.03;;;1.90;;
39264;SDS011;42646;51.910;7.724;2022-09-09T07:32:20;6.72;;;1.92;;
39264;SDS011;42646;51.910;7.724;2022-09-09T07:34:48;4.88;;;1.92;;
39264;SDS011;42646;51.910;7.724;2022-09-09T07:37:18;6.00;;;1.85;;
39264;SDS011;42646;51.910;7.724;2022-09-09T07:39:47;4.20;;;1.85;;
39264;SDS011;42646;51.910;7.724;2022-09-09T07:42:18;4.23;;;1.70;;
39264;SDS011;42646;51.910;7.724;2022-09-09T07:44:45;5.50;;;2.22;;
39264;SDS011;42646;51.910;7.724;2022-09-09T07:47:15;6.05;;;1.95;;
39264;SDS011;42646;51.910;7.724;2022-09-09T07:49:45;3.22;;;1.45;;
39264;SDS011;42646;51.910;7.724;2022-09-09T07:52:21;4.45;;;1.55;;
39264;SDS011;42646;51.910;7.724;2022-09-09T07:54:53;5.07;;;1.85;;
39264;SDS011;42646;51.910;7.724;2022-09-09T07:57:22;6.50;;;2.03;;
39264;SDS011;42646;51.910;7.724;2022-09-09T07:59:51;5.57;;;1.80;;
39264;SDS011;42646;51.910;7.724;2022-09-09T08:02:19;6.28;;;1.70;;
39264;SDS011;42646;51.910;7.724;2022-09-09T08:04:48;4.40;;;1.70;;
39264;SDS011;42646;51.910;7.724;2022-09-09T08:07:17;6.28;;;1.83;;
39264;SDS011;42646;51.910;7.724;2022-09-09T08:09:51;4.22;;;1.63;;
39264;SDS011;42646;51.910;7.724;2022-09-09T08:12:24;5.45;;;1.80;;
39264;SDS011;42646;51.910;7.724;2022-09-09T08:14:52;4.65;;;1.58;;
39264;SDS011;42646;51.910;7.724;2022-09-09T08:17:23;7.18;;;2.22;;
39264;SDS011;42646;51.910;7.724;2022-09-09T08:19:51;4.97;;;1.50;;
39264;SDS011;42646;51.910;7.724;2022-09-09T08:22:23;4.43;;;1.80;;
39264;SDS011;42646;51.910;7.724;2022-09-09T08:24:55;3.95;;;1.50;;
39264;SDS011;42646;51.910;7.724;2022-09-09T08:27:22;7.32;;;1.60;;
39264;SDS011;42646;51.910;7.724;2022-09-09T08:29:51;4.03;;;1.55;;
39264;SDS011;42646;51.910;7.724;2022-09-09T08:32:19;6.32;;;1.83;;
39264;SDS011;42646;51.910;7.724;2022-09-09T08:34:48;6.57;;;1.63;;
39264;SDS011;42646;51.910;7.724;2022-09-09T08:37:22;7.38;;;1.90;;
39264;SDS011;42646;51.910;7.724;2022-09-09T08:39:49;3.72;;;1.40;;
39264;SDS011;42646;51.910;7.724;2022-09-09T08:42:28;4.60;;;1.67;;
39264;SDS011;42646;51.910;7.724;2022-09-09T08:45:09;6.15;;;1.92;;
39264;SDS011;42646;51.910;7.724;2022-09-09T08:47:50;6.88;;;1.83;;
39264;SDS011;42646;51.910;7.724;2022-09-09T08:50:29;5.88;;;2.00;;
39264;SDS011;42646;51.910;7.724;2022-09-09T08:53:11;4.65;;;1.98;;
39264;SDS011;42646;51.910;7.724;2022-09-09T08:55:45;7.57;;;2.42;;
39264;SDS011;42646;51.910;7.724;2022-09-09T08:58:20;6.68;;;2.45;;
39264;SDS011;42646;51.910;7.724;2022-09-09T09:00:59;6.60;;;2.30;;
39264;SDS011;42646;51.910;7.724;2022-09-09T09:03:47;6.55;;;2.35;;
39264;SDS011;42646;51.910;7.724;2022-09-09T09:06:26;5.55;;;2.33;;
39264;SDS011;42646;51.910;7.724;2022-09-09T09:09:11;5.13;;;2.22;;
39264;SDS011;42646;51.910;7.724;2022-09-09T09:11:49;6.57;;;2.45;;
39264;SDS011;42646;51.910;7.724;2022-09-09T09:14:21;6.65;;;2.10;;
39264;SDS011;42646;51.910;7.724;2022-09-09T09:16:54;8.32;;;2.00;;
39264;SDS011;42646;51.910;7.724;2022-09-09T09:19:27;4.93;;;1.90;;
39264;SDS011;42646;51.910;7.724;2022-09-09T09:21:58;7.18;;;2.22;;
39264;SDS011;42646;51.910;7.724;2022-09-09T09:24:34;6.13;;;1.77;;
39264;SDS011;42646;51.910;7.724;2022-09-09T09:27:14;5.40;;;1.67;;
39264;SDS011;42646;51.910;7.724;2022-09-09T09:29:50;4.93;;;1.80;;
39264;SDS011;42646;51.910;7.724;2022-09-09T09:32:44;5.43;;;1.73;;
39264;SDS011;42646;51.910;7.724;2022-09-09T09:35:18;6.07;;;1.73;;
39264;SDS011;42646;51.910;7.724;2022-09-09T09:37:46;5.70;;;1.70;;
39264;SDS011;42646;51.910;7.724;2022-09-09T09:40:35;4.68;;;1.70;;
39264;SDS011;42646;51.910;7.724;2022-09-09T09:43:03;4.85;;;1.63;;
39264;SDS011;42646;51.910;7.724;2022-09-09T09:45:41;8.50;;;2.10;;
39264;SDS011;42646;51.910;7.724;2022-09-09T09:48:26;6.38;;;1.85;;
39264;SDS011;42646;51.910;7.724;2022-09-09T09:50:55;5.97;;;1.60;;
39264;SDS011;42646;51.910;7.724;2022-09-09T09:53:25;4.55;;;1.90;;
39264;SDS011;42646;51.910;7.724;2022-09-09T09:55:56;6.65;;;1.90;;
39264;SDS011;42646;51.910;7.724;2022-09-09T09:58:27;6.20;;;1.70;;
39264;SDS011;42646;51.910;7.724;2022-09-09T10:01:02;5.65;;;1.92;;
39264;SDS011;42646;51.910;7.724;2022-09-09T10:03:31;6.63;;;2.00;;
39264;SDS011;42646;51.910;7.724;2022-09-09T10:06:04;4.32;;;2.22;;
39264;SDS011;42646;51.910;7.724;2022-09-09T10:08:33;5.80;;;2.20;;
39264;SDS011;42646;51.910;7.724;2022-09-09T10:11:22;6.28;;;2.10;;
39264;SDS011;42646;51.910;7.724;2022-09-09T10:14:04;3.90;;;1.90;;
39264;SDS011;42646;51.910;7.724;2022-09-09T10:16:46;4.60;;;1.85;;
39264;SDS011;42646;51.910;7.724;2022-09-09T10:19:27;4.78;;;1.88;;
39264;SDS011;42646;51.910;7.724;2022-09-09T10:22:11;6.55;;;2.10;;
39264;SDS011;42646;51.910;7.724;2022-09-09T10:28:18;5.85;;;2.40;;
39264;SDS011;42646;51.910;7.724;2022-09-09T10:31:00;9.20;;;2.33;;
39264;SDS011;42646;51.910;7.724;2022-09-09T10:33:41;5.65;;;2.30;;
39264;SDS011;42646;51.910;7.724;2022-09-09T10:36:18;5.57;;;2.42;;
39264;SDS011;42646;51.910;7.724;2022-09-09T10:38:50;4.43;;;2.10;;
39264;SDS011;42646;51.910;7.724;2022-09-09T10:41:25;5.18;;;2.10;;
39264;SDS011;42646;51.910;7.724;2022-09-09T10:44:23;5.38;;;2.30;;
39264;SDS011;42646;51.910;7.724;2022-09-09T10:47:09;5.75;;;2.13;;
39264;SDS011;42646;51.910;7.724;2022-09-09T10:50:08;5.50;;;2.30;;
39264;SDS011;42646;51.910;7.724;2022-09-09T10:52:47;5.15;;;1.90;;
39264;SDS011;42646;51.910;7.724;2022-09-09T10:55:26;6.22;;;2.00;;
39264;SDS011;42646;51.910;7.724;2022-09-09T10:58:02;4.10;;;1.90;;
39264;SDS011;42646;51.910;7.724;2022-09-09T11:00:36;3.85;;;1.83;;
39264;SDS011;42646;51.910;7.724;2022-09-09T11:03:09;5.18;;;2.10;;
39264;SDS011;42646;51.910;7.724;2022-09-09T11:05:51;5.53;;;2.72;;
39264;SDS011;42646;51.910;7.724;2022-09-09T11:08:23;5.15;;;2.28;;
39264;SDS011;42646;51.910;7.724;2022-09-09T11:10:58;4.47;;;2.30;;
39264;SDS011;42646;51.910;7.724;2022-09-09T11:13:32;4.57;;;2.40;;
39264;SDS011;42646;51.910;7.724;2022-09-09T11:16:11;6.07;;;3.10;;
39264;SDS011;42646;51.910;7.724;2022-09-09T11:18:46;6.28;;;3.20;;
39264;SDS011;42646;51.910;7.724;2022-09-09T11:21:18;6.38;;;3.13;;
39264;SDS011;42646;51.910;7.724;2022-09-09T11:23:49;4.63;;;2.80;;
39264;SDS011;42646;51.910;7.724;2022-09-09T11:26:24;6.28;;;2.60;;
39264;SDS011;42646;51.910;7.724;2022-09-09T11:29:01;4.72;;;2.55;;
39264;SDS011;42646;51.910;7.724;2022-09-09T11:31:53;4.45;;;2.30;;
39264;SDS011;42646;51.910;7.724;2022-09-09T11:34:33;5.65;;;1.50;;
39264;SDS011;42646;51.910;7.724;2022-09-09T11:37:15;5.43;;;1.50;;
39264;SDS011;42646;51.910;7.724;2022-09-09T11:40:02;4.85;;;1.35;;
39264;SDS011;42646;51.910;7.724;2022-09-09T11:42:41;5.28;;;1.60;;
39264;SDS011;42646;51.910;7.724;2022-09-09T11:45:10;7.07;;;1.70;;
39264;SDS011;42646;51.910;7.724;2022-09-09T11:47:51;5.00;;;1.80;;
39264;SDS011;42646;51.910;7.724;2022-09-09T11:50:28;5.38;;;1.90;;
39264;SDS011;42646;51.910;7.724;2022-09-09T11:53:19;4.18;;;2.00;;
39264;SDS011;42646;51.910;7.724;2022-09-09T11:56:09;4.70;;;2.30;;
39264;SDS011;42646;51.910;7.724;2022-09-09T11:58:40;5.60;;;2.08;;
39264;SDS011;42646;51.910;7.724;2022-09-09T12:01:15;3.40;;;1.85;;
39264;SDS011;42646;51.910;7.724;2022-09-09T12:06:29;5.60;;;1.90;;
39264;SDS011;42646;51.910;7.724;2022-09-09T12:09:05;4.82;;;1.80;;
39264;SDS011;42646;51.910;7.724;2022-09-09T12:11:35;5.32;;;1.70;;
39264;SDS011;42646;51.910;7.724;2022-09-09T12:14:03;2.83;;;1.48;;
39264;SDS011;42646;51.910;7.724;2022-09-09T12:16:32;3.83;;;1.38;;
39264;SDS011;42646;51.910;7.724;2022-09-09T12:19:05;4.20;;;1.50;;
39264;SDS011;42646;51.910;7.724;2022-09-09T12:21:43;3.47;;;1.50;;
39264;SDS011;42646;51.910;7.724;2022-09-09T12:24:19;4.50;;;1.40;;
39264;SDS011;42646;51.910;7.724;2022-09-09T12:26:55;3.70;;;1.40;;
39264;SDS011;42646;51.910;7.724;2022-09-09T12:29:32;3.35;;;1.10;;
39264;SDS011;42646;51.910;7.724;2022-09-09T12:32:10;4.97;;;1.33;;
39264;SDS011;42646;51.910;7.724;2022-09-09T12:34:40;4.57;;;1.67;;
39264;SDS011;42646;51.910;7.724;2022-09-09T12:37:13;4.05;;;1.42;;
39264;SDS011;42646;51.910;7.724;2022-09-09T12:39:47;5.47;;;1.38;;
39264;SDS011;42646;51.910;7.724;2022-09-09T12:42:21;4.22;;;1.40;;
39264;SDS011;42646;51.910;7.724;2022-09-09T12:44:53;5.25;;;1.40;;
39264;SDS011;42646;51.910;7.724;2022-09-09T12:47:24;4.10;;;1.27;;
39264;SDS011;42646;51.910;7.724;2022-09-09T12:49:57;2.45;;;1.17;;
39264;SDS011;42646;51.910;7.724;2022-09-09T12:52:27;4.03;;;1.40;;
39264;SDS011;42646;51.910;7.724;2022-09-09T12:55:00;3.28;;;1.40;;
39264;SDS011;42646;51.910;7.724;2022-09-09T12:57:33;3.88;;;1.50;;
39264;SDS011;42646;51.910;7.724;2022-09-09T13:00:08;4.00;;;1.50;;
39264;SDS011;42646;51.910;7.724;2022-09-09T13:02:46;5.00;;;1.42;;
39264;SDS011;42646;51.910;7.724;2022-09-09T13:05:17;3.83;;;1.40;;
39264;SDS011;42646;51.910;7.724;2022-09-09T13:07:47;2.97;;;1.43;;
39264;SDS011;42646;51.910;7.724;2022-09-09T13:10:19;4.50;;;1.58;;
39264;SDS011;42646;51.910;7.724;2022-09-09T13:13:12;4.38;;;1.60;;
39264;SDS011;42646;51.910;7.724;2022-09-09T13:15:47;4.00;;;1.60;;
39264;SDS011;42646;51.910;7.724;2022-09-09T13:18:18;2.85;;;1.40;;
39264;SDS011;42646;51.910;7.724;2022-09-09T13:20:48;4.68;;;1.77;;
39264;SDS011;42646;51.910;7.724;2022-09-09T13:23:17;4.82;;;2.00;;
39264;SDS011;42646;51.910;7.724;2022-09-09T13:25:55;4.13;;;1.77;;
39264;SDS011;42646;51.910;7.724;2022-09-09T13:28:24;3.67;;;1.67;;
39264;SDS011;42646;51.910;7.724;2022-09-09T13:30:59;3.58;;;1.55;;
39264;SDS011;42646;51.910;7.724;2022-09-09T13:33:30;3.15;;;1.30;;
39264;SDS011;42646;51.910;7.724;2022-09-09T13:36:00;3.47;;;1.50;;
39264;SDS011;42646;51.910;7.724;2022-09-09T13:38:31;4.10;;;1.17;;
39264;SDS011;42646;51.910;7.724;2022-09-09T13:41:02;4.60;;;1.40;;
39264;SDS011;42646;51.910;7.724;2022-09-09T13:43:34;5.43;;;1.70;;
39264;SDS011;42646;51.910;7.724;2022-09-09T13:48:53;4.15;;;1.33;;
39264;SDS011;42646;51.910;7.724;2022-09-09T13:51:26;3.42;;;1.30;;
39264;SDS011;42646;51.910;7.724;2022-09-09T13:53:59;4.10;;;1.30;;
39264;SDS011;42646;51.910;7.724;2022-09-09T13:56:28;4.43;;;1.40;;
39264;SDS011;42646;51.910;7.724;2022-09-09T13:58:56;4.00;;;1.30;;
39264;SDS011;42646;51.910;7.724;2022-09-09T14:01:24;2.47;;;1.10;;
39264;SDS011;42646;51.910;7.724;2022-09-09T14:03:55;3.97;;;1.10;;
39264;SDS011;42646;51.910;7.724;2022-09-09T14:06:23;3.20;;;1.30;;
39264;SDS011;42646;51.910;7.724;2022-09-09T14:08:50;3.00;;;1.02;;
39264;SDS011;42646;51.910;7.724;2022-09-09T14:11:21;4.15;;;1.27;;
39264;SDS011;42646;51.910;7.724;2022-09-09T14:13:50;3.40;;;1.10;;
39264;SDS011;42646;51.910;7.724;2022-09-09T14:16:17;3.35;;;1.20;;
39264;SDS011;42646;51.910;7.724;2022-09-09T14:18:46;2.95;;;1.00;;
39264;SDS011;42646;51.910;7.724;2022-09-09T14:21:14;2.92;;;1.30;;
39264;SDS011;42646;51.910;7.724;2022-09-09T14:23:42;4.72;;;1.27;;
39264;SDS011;42646;51.910;7.724;2022-09-09T14:26:10;3.80;;;1.38;;
39264;SDS011;42646;51.910;7.724;2022-09-09T14:28:37;3.72;;;1.27;;
39264;SDS011;42646;51.910;7.724;2022-09-09T14:31:23;4.38;;;1.20;;
39264;SDS011;42646;51.910;7.724;2022-09-09T14:33:51;3.95;;;1.42;;
39264;SDS011;42646;51.910;7.724;2022-09-09T14:36:19;3.33;;;1.25;;
39264;SDS011;42646;51.910;7.724;2022-09-09T14:38:47;2.72;;;1.05;;
39264;SDS011;42646;51.910;7.724;2022-09-09T14:41:15;1.52;;;0.80;;
39264;SDS011;42646;51.910;7.724;2022-09-09T14:43:46;1.63;;;0.88;;
39264;SDS011;42646;51.910;7.724;2022-09-09T14:46:15;2.47;;;0.82;;
39264;SDS011;42646;51.910;7.724;2022-09-09T14:48:46;2.05;;;0.82;;
39264;SDS011;42646;51.910;7.724;2022-09-09T14:51:15;2.65;;;1.00;;
39264;SDS011;42646;51.910;7.724;2022-09-09T14:53:45;2.40;;;0.80;;
39264;SDS011;42646;51.910;7.724;2022-09-09T14:56:14;2.10;;;0.90;;
39264;SDS011;42646;51.910;7.724;2022-09-09T14:58:43;3.63;;;1.30;;
39264;SDS011;42646;51.910;7.724;2022-09-09T15:01:12;4.68;;;1.20;;
39264;SDS011;42646;51.910;7.724;2022-09-09T15:03:42;3.67;;;1.30;;
39264;SDS011;42646;51.910;7.724;2022-09-09T15:06:12;3.85;;;1.40;;
39264;SDS011;42646;51.910;7.724;2022-09-09T15:08:42;3.23;;;1.27;;
39264;SDS011;42646;51.910;7.724;2022-09-09T15:11:11;4.15;;;1.45;;
39264;SDS011;42646;51.910;7.724;2022-09-09T15:13:41;3.92;;;1.23;;
39264;SDS011;42646;51.910;7.724;2022-09-09T15:16:10;3.70;;;1.08;;
39264;SDS011;42646;51.910;7.724;2022-09-09T15:18:39;4.18;;;1.10;;
39264;SDS011;42646;51.910;7.724;2022-09-09T15:21:09;3.17;;;1.20;;
39264;SDS011;42646;51.910;7.724;2022-09-09T15:23:38;2.97;;;1.30;;
39264;SDS011;42646;51.910;7.724;2022-09-09T15:26:06;3.42;;;1.10;;
39264;SDS011;42646;51.910;7.724;2022-09-09T15:28:35;2.83;;;1.23;;
39264;SDS011;42646;51.910;7.724;2022-09-09T15:31:05;4.70;;;1.20;;
39264;SDS011;42646;51.910;7.724;2022-09-09T15:33:34;3.35;;;1.10;;
39264;SDS011;42646;51.910;7.724;2022-09-09T15:36:12;2.05;;;1.13;;
39264;SDS011;42646;51.910;7.724;2022-09-09T15:38:42;2.40;;;1.10;;
39264;SDS011;42646;51.910;7.724;2022-09-09T15:41:10;5.85;;;1.50;;